Time;durP1;ratioP1;P1;durP2;ratioP2;P2;SDS_P1;SDS_P2;PMS_P1;PMS_P2;Temp;Humidity;BMP_temperature;BMP_pressure;BME280_temperature;BME280_humidity;BME280_pressure;Samples;Min_cycle;Max_cycle;Signal;HPM_P1;HPM_P2
2022/06/13 00:00:19;;;;;;;;;2.33;2.33;;;;;16.78;51.94;101717.22;5076531;27;45386;-66
2022/06/13 00:02:45;;;;;;;;;4.00;3.00;;;;;16.77;52.45;101725.38;5076148;27;45367;-64
2022/06/13 00:05:12;;;;;;;;;6.33;3.33;;;;;16.76;52.23;101729.03;5076963;27;45478;-65
2022/06/13 00:07:37;;;;;;;;;3.00;3.00;;;;;16.69;52.42;101730.38;5076074;27;46312;-65
2022/06/13 00:10:03;;;;;;;;;3.67;2.33;;;;;16.68;52.81;101734.03;5074538;27;45192;-66
2022/06/13 00:12:29;;;;;;;;;3.67;3.67;;;;;16.70;52.54;101729.44;5076309;27;45954;-64
2022/06/13 00:14:54;;;;;;;;;3.67;3.67;;;;;16.61;52.61;101733.50;5076311;27;45433;-66
2022/06/13 00:17:20;;;;;;;;;4.00;3.00;;;;;16.52;52.60;101726.88;5074477;27;46211;-67
2022/06/13 00:19:45;;;;;;;;;2.67;2.00;;;;;16.44;53.16;101731.91;5075988;27;45463;-66
2022/06/13 00:22:11;;;;;;;;;4.00;3.00;;;;;16.37;53.82;101733.22;5076245;27;45476;-65
2022/06/13 00:24:36;;;;;;;;;3.00;3.00;;;;;16.31;53.87;101733.63;5076164;27;45423;-65
2022/06/13 00:27:03;;;;;;;;;3.00;3.00;;;;;16.39;53.90;101733.13;5075843;27;45436;-65
2022/06/13 00:29:28;;;;;;;;;3.00;2.33;;;;;16.42;53.90;101724.91;5075969;27;45373;-65
2022/06/13 00:31:54;;;;;;;;;4.00;4.00;;;;;16.38;53.92;101734.94;5076225;27;45443;-65
2022/06/13 00:34:19;;;;;;;;;5.33;4.00;;;;;16.26;54.03;101727.66;5076281;27;45654;-66
2022/06/13 00:36:45;;;;;;;;;4.00;3.33;;;;;16.21;54.07;101721.72;5076426;28;45560;-65
2022/06/13 00:39:10;;;;;;;;;4.00;3.00;;;;;16.28;54.26;101719.53;5075735;27;45290;-67
2022/06/13 00:41:38;;;;;;;;;2.00;2.00;;;;;16.39;53.45;101725.06;5076129;27;45458;-66
2022/06/13 00:44:32;;;;;;;;;4.00;2.33;;;;;16.39;53.63;101730.44;5076305;27;45451;-66
2022/06/13 00:46:57;;;;;;;;;8.33;3.00;;;;;16.31;54.43;101720.19;5091187;27;48018;-66
2022/06/13 00:49:28;;;;;;;;;2.00;2.00;;;;;16.30;54.67;101714.94;5091203;27;45404;-65
2022/06/13 00:52:23;;;;;;;;;2.00;2.00;;;;;16.19;55.08;101712.91;5074431;28;45329;-66
2022/06/13 00:54:51;;;;;;;;;4.00;3.00;;;;;16.19;54.79;101719.13;5075386;27;45477;-65
2022/06/13 00:57:20;;;;;;;;;3.67;2.67;;;;;16.19;54.80;101708.41;5075348;27;45965;-65
2022/06/13 00:59:49;;;;;;;;;5.00;3.00;;;;;16.22;55.24;101707.34;5075492;27;45544;-66
2022/06/13 01:02:15;;;;;;;;;4.67;3.00;;;;;16.29;54.57;101706.00;5091762;27;45341;-66
2022/06/13 01:04:41;;;;;;;;;3.00;3.00;;;;;16.25;54.78;101699.09;5075965;27;45322;-65
2022/06/13 01:07:09;;;;;;;;;4.00;2.33;;;;;16.31;55.12;101701.41;5075565;27;46245;-66
2022/06/13 01:12:20;;;;;;;;;2.00;2.00;;;;;16.29;55.23;101692.59;5078867;28;45469;-65
2022/06/13 01:14:54;;;;;;;;;4.00;2.33;;;;;16.28;55.57;101701.59;5079460;27;45358;-68
2022/06/13 01:17:43;;;;;;;;;2.67;2.00;;;;;16.16;55.67;101694.31;5078461;27;46100;-66
2022/06/13 01:20:18;;;;;;;;;5.00;3.00;;;;;16.07;56.42;101695.72;5077257;28;45375;-68
2022/06/13 01:23:51;;;;;;;;;2.00;2.00;;;;;16.08;56.66;101704.66;5079020;27;45331;-66
2022/06/13 01:26:19;;;;;;;;;3.00;3.00;;;;;15.97;57.41;101697.25;5056626;28;45370;-66
2022/06/13 01:29:06;;;;;;;;;4.00;3.00;;;;;15.89;57.35;101689.69;5056190;28;46145;-66
2022/06/13 01:32:04;;;;;;;;;5.00;3.33;;;;;15.98;56.13;101687.38;5061808;28;45443;-66
2022/06/13 01:34:48;;;;;;;;;2.00;2.00;;;;;15.90;57.60;101680.69;5077299;27;45365;-65
2022/06/13 01:37:35;;;;;;;;;2.00;2.00;;;;;15.90;57.21;101679.81;5078993;27;45269;-66
2022/06/13 01:40:25;;;;;;;;;3.00;3.00;;;;;15.88;57.63;101687.06;5078589;27;46380;-65
2022/06/13 01:43:14;;;;;;;;;4.67;4.67;;;;;15.88;57.44;101687.94;5078262;27;45215;-65
2022/06/13 01:45:46;;;;;;;;;4.67;3.33;;;;;15.90;57.62;101686.03;5078737;27;45424;-67
2022/06/13 01:49:09;;;;;;;;;5.00;4.00;;;;;15.94;57.50;101697.44;5078821;27;45239;-65
2022/06/13 01:51:42;;;;;;;;;1.00;1.00;;;;;15.72;58.48;101697.88;5055872;28;45268;-66
2022/06/13 01:54:26;;;;;;;;;3.00;3.00;;;;;15.61;58.62;101697.63;5055339;28;45457;-69
2022/06/13 01:56:57;;;;;;;;;3.33;3.33;;;;;15.62;58.95;101704.72;5070282;28;45380;-68
2022/06/13 01:59:31;;;;;;;;;5.00;4.67;;;;;15.60;58.76;101699.47;5078407;27;45330;-64
2022/06/13 02:02:15;;;;;;;;;4.00;3.00;;;;;15.64;58.75;101700.16;5077202;27;46123;-65
2022/06/13 02:05:04;;;;;;;;;4.67;4.00;;;;;15.67;58.43;101699.97;5077845;27;45222;-68
2022/06/13 02:07:52;;;;;;;;;7.67;3.67;;;;;15.63;59.09;101696.63;5078115;28;45548;-65
2022/06/13 02:10:25;;;;;;;;;5.00;5.00;;;;;15.58;59.00;101698.66;5078196;28;45311;-65
2022/06/13 02:13:01;;;;;;;;;5.33;4.00;;;;;15.60;59.46;101701.28;5077831;27;46372;-66
2022/06/13 02:15:38;;;;;;;;;8.33;6.00;;;;;15.64;58.73;101692.13;5093142;27;45403;-65
2022/06/13 02:18:14;;;;;;;;;6.00;5.00;;;;;15.59;60.17;101703.09;5077699;27;45330;-64
2022/06/13 02:20:47;;;;;;;;;5.67;4.67;;;;;15.50;59.94;101694.72;5077820;27;45238;-65
2022/06/13 02:23:19;;;;;;;;;9.67;5.67;;;;;15.49;60.01;101690.28;5077262;27;46219;-65
2022/06/13 02:25:53;;;;;;;;;5.67;5.33;;;;;15.52;59.92;101693.66;5077554;27;45576;-65
2022/06/13 02:28:40;;;;;;;;;9.33;5.00;;;;;15.56;59.95;101694.34;5078214;27;45290;-66
2022/06/13 02:31:21;;;;;;;;;6.33;5.00;;;;;15.53;60.14;101692.72;5076764;27;45519;-65
2022/06/13 02:33:54;;;;;;;;;7.67;5.00;;;;;15.49;60.08;101693.81;5078026;27;45458;-66
2022/06/13 02:36:52;;;;;;;;;6.00;6.00;;;;;15.43;61.29;101696.03;5078432;27;45334;-66
2022/06/13 02:39:45;;;;;;;;;9.67;6.00;;;;;15.45;60.59;101694.09;5042971;27;45959;-65
2022/06/13 02:42:17;;;;;;;;;3.00;3.00;;;;;15.44;60.84;101692.38;5073326;28;45442;-66
2022/06/13 02:45:01;;;;;;;;;8.67;8.00;;;;;15.44;60.91;101692.38;5077090;27;45746;-65
2022/06/13 02:47:42;;;;;;;;;6.00;6.00;;;;;15.49;60.93;101696.50;5077288;27;45409;-67
2022/06/13 02:50:15;;;;;;;;;11.00;7.00;;;;;15.46;61.70;101702.06;5077403;27;45339;-65
2022/06/13 02:52:49;;;;;;;;;7.00;5.67;;;;;15.39;61.58;101694.47;5077338;27;45206;-65
2022/06/13 02:55:17;;;;;;;;;7.00;5.33;;;;;15.38;61.92;101690.94;5076846;27;45298;-64
2022/06/13 02:58:05;;;;;;;;;5.00;5.00;;;;;15.35;61.13;101700.00;5075919;28;45374;-65
2022/06/13 03:00:49;;;;;;;;;7.00;5.33;;;;;15.41;61.34;101690.75;5077147;27;45404;-65
2022/06/13 03:03:29;;;;;;;;;6.67;6.67;;;;;15.43;60.90;101696.03;5076665;27;45555;-65
2022/06/13 03:06:07;;;;;;;;;5.00;5.00;;;;;15.47;61.11;101700.25;5077034;27;45503;-65
2022/06/13 03:08:44;;;;;;;;;6.00;6.00;;;;;15.50;60.55;101702.75;5075502;28;45815;-64
2022/06/13 03:11:12;;;;;;;;;5.00;5.00;;;;;15.49;60.75;101701.88;5076786;27;45498;-66
2022/06/13 03:13:54;;;;;;;;;6.00;5.67;;;;;15.46;61.55;101710.09;5077193;27;45380;-66
2022/06/13 03:16:25;;;;;;;;;4.33;4.33;;;;;15.34;62.21;101706.31;5077131;27;45728;-65
2022/06/13 03:18:57;;;;;;;;;6.33;6.33;;;;;15.33;61.99;101714.44;5076861;27;45488;-66
2022/06/13 03:21:33;;;;;;;;;9.67;6.00;;;;;15.37;60.90;101707.13;5077296;28;45357;-67
2022/06/13 03:24:11;;;;;;;;;5.67;5.00;;;;;15.44;61.58;101711.16;5076934;27;45499;-65
2022/06/13 03:26:43;;;;;;;;;4.67;4.67;;;;;15.41;61.29;101709.53;5076710;27;45274;-67
2022/06/13 03:29:35;;;;;;;;;9.33;5.33;;;;;15.42;61.38;101713.94;5076902;27;45429;-66
2022/06/13 03:32:14;;;;;;;;;5.00;4.00;;;;;15.43;61.62;101725.50;5076085;27;45481;-66
2022/06/13 03:34:46;;;;;;;;;5.33;5.33;;;;;15.32;62.28;101721.63;5077173;27;45389;-66
2022/06/13 03:37:21;;;;;;;;;6.00;4.00;;;;;15.32;61.35;101726.13;5076657;27;46331;-67
2022/06/13 03:39:55;;;;;;;;;9.33;5.67;;;;;15.33;61.77;101722.50;5092203;27;45489;-67
2022/06/13 03:42:38;;;;;;;;;6.00;5.00;;;;;15.30;61.57;101731.56;5092395;27;45405;-66
2022/06/13 03:45:20;;;;;;;;;6.00;4.00;;;;;15.31;61.67;101727.09;5076459;27;45596;-65
2022/06/13 03:48:17;;;;;;;;;6.67;5.00;;;;;15.21;62.17;101734.78;5076531;27;46077;-66
2022/06/13 03:50:47;;;;;;;;;8.00;4.00;;;;;15.20;62.96;101734.88;5073373;28;45287;-66
2022/06/13 03:53:27;;;;;;;;;6.33;5.00;;;;;15.13;63.34;101742.41;5076816;28;45406;-66
2022/06/13 03:55:56;;;;;;;;;5.67;3.00;;;;;15.13;63.54;101738.88;5077087;27;45483;-66
2022/06/13 03:58:33;;;;;;;;;4.33;3.00;;;;;15.12;63.36;101739.81;5076294;27;46323;-65
2022/06/13 04:01:21;;;;;;;;;8.67;5.00;;;;;15.06;63.89;101741.03;5076121;27;45464;-65
2022/06/13 04:03:46;;;;;;;;;5.00;5.00;;;;;15.10;63.08;101734.53;5074831;27;45393;-66
2022/06/13 04:06:32;;;;;;;;;6.00;6.00;;;;;15.12;63.52;101735.31;5075765;27;45646;-65
2022/06/13 04:09:00;;;;;;;;;4.33;4.33;;;;;15.05;63.47;101731.25;5076118;28;45377;-66
2022/06/13 04:11:53;;;;;;;;;4.00;4.00;;;;;15.05;63.11;101733.94;5076504;27;45400;-67
2022/06/13 04:14:34;;;;;;;;;10.33;6.00;;;;;15.12;62.90;101740.69;5076673;27;45221;-67
2022/06/13 04:17:28;;;;;;;;;5.33;5.33;;;;;15.05;64.07;101737.47;5076982;27;45344;-65
2022/06/13 04:20:09;;;;;;;;;4.00;4.00;;;;;15.01;62.83;101735.06;5076316;27;47121;-67
2022/06/13 04:22:59;;;;;;;;;10.00;6.00;;;;;15.00;63.27;101736.03;5076005;27;45464;-66
2022/06/13 04:26:01;;;;;;;;;9.00;9.00;;;;;15.02;62.68;101731.44;5076346;27;45313;-65
2022/06/13 04:28:58;;;;;;;;;7.00;5.00;;;;;15.09;63.18;101734.63;5056418;27;45560;-67
2022/06/13 04:31:25;;;;;;;;;9.00;7.00;;;;;15.06;63.08;101732.97;5076001;28;45603;-65
2022/06/13 04:34:02;;;;;;;;;8.33;5.33;;;;;15.13;62.80;101741.56;5075453;27;45329;-67
2022/06/13 04:36:30;;;;;;;;;8.67;4.00;;;;;15.09;62.57;101735.47;5074581;27;45354;-65
2022/06/13 04:38:59;;;;;;;;;8.67;4.67;;;;;15.09;62.31;101737.28;5076443;27;45655;-66
2022/06/13 04:41:29;;;;;;;;;10.00;4.00;;;;;15.10;62.81;101744.38;5075819;27;45405;-65
2022/06/13 04:43:57;;;;;;;;;5.67;5.67;;;;;15.07;62.61;101745.41;5079524;27;45340;-65
2022/06/13 04:46:25;;;;;;;;;5.33;4.33;;;;;15.05;63.36;101750.00;5079412;27;45333;-65
2022/06/13 04:48:54;;;;;;;;;9.00;6.67;;;;;15.08;62.70;101741.78;5079542;27;45339;-66
2022/06/13 04:51:23;;;;;;;;;6.67;5.00;;;;;15.11;63.24;101751.50;5079061;27;45375;-67
2022/06/13 04:54:04;;;;;;;;;4.00;4.00;;;;;15.11;62.64;101749.69;5077648;27;46120;-65
2022/06/13 04:56:30;;;;;;;;;8.33;8.00;;;;;15.04;62.86;101742.94;5079373;27;45352;-65
2022/06/13 04:58:58;;;;;;;;;6.00;4.67;;;;;15.09;62.42;101753.38;5079673;27;45387;-65
2022/06/13 05:01:33;;;;;;;;;8.00;8.00;;;;;15.13;62.81;101760.31;5078912;27;45639;-65
2022/06/13 05:04:04;;;;;;;;;6.00;5.00;;;;;15.14;62.64;101765.56;5079225;27;45328;-61
2022/06/13 05:06:31;;;;;;;;;9.00;6.33;;;;;15.16;63.06;101763.66;5078087;28;45751;-63
2022/06/13 05:09:02;;;;;;;;;9.33;5.00;;;;;15.11;63.75;101760.41;5079301;27;45401;-62
2022/06/13 05:11:32;;;;;;;;;11.67;7.00;;;;;15.07;63.43;101766.00;5078831;27;45322;-61
2022/06/13 05:14:07;;;;;;;;;10.00;5.33;;;;;14.96;64.63;101766.59;5078497;27;45330;-65
2022/06/13 05:16:42;;;;;;;;;6.67;6.67;;;;;14.97;64.38;101768.31;5078720;27;45357;-71
2022/06/13 05:19:28;;;;;;;;;9.00;5.00;;;;;15.02;63.18;101766.25;5079076;27;45404;-65
2022/06/13 05:22:06;;;;;;;;;8.33;5.00;;;;;15.07;63.61;101772.22;5079207;27;46754;-68
2022/06/13 05:25:03;;;;;;;;;20.00;10.00;;;;;15.09;64.33;101773.00;5078769;27;45330;-61
2022/06/13 05:27:29;;;;;;;;;8.67;5.00;;;;;15.01;64.18;101764.53;5078169;28;45384;-64
2022/06/13 05:29:54;;;;;;;;;5.33;5.00;;;;;15.03;63.80;101758.13;5078998;27;45424;-64
2022/06/13 05:32:22;;;;;;;;;13.00;9.00;;;;;15.09;63.38;101770.31;5078461;27;46025;-64
2022/06/13 05:34:48;;;;;;;;;6.00;4.33;;;;;15.09;63.44;101773.00;5077440;27;45354;-67
2022/06/13 05:37:16;;;;;;;;;6.00;5.00;;;;;15.14;62.97;101776.28;5078721;27;45511;-63
2022/06/13 05:39:42;;;;;;;;;4.67;4.67;;;;;15.17;63.55;101776.13;5078790;27;45487;-67
2022/06/13 05:42:11;;;;;;;;;10.67;8.00;;;;;15.20;64.46;101775.06;5076547;28;47372;-65
2022/06/13 05:44:37;;;;;;;;;6.67;6.00;;;;;15.19;64.21;101773.34;5073309;27;45642;-63
2022/06/13 05:47:03;;;;;;;;;8.67;8.67;;;;;15.23;64.11;101780.25;5059546;27;45548;-62
2022/06/13 05:49:29;;;;;;;;;5.00;4.33;;;;;15.22;63.70;101782.06;5067633;28;45656;-62
2022/06/13 05:51:55;;;;;;;;;13.00;8.33;;;;;15.26;64.17;101791.69;5075027;27;46283;-67
2022/06/13 05:54:21;;;;;;;;;17.33;10.00;;;;;15.28;64.59;101796.94;5075692;27;45413;-63
2022/06/13 05:56:47;;;;;;;;;10.00;10.00;;;;;15.23;64.91;101790.97;5076961;28;45246;-68
2022/06/13 05:59:12;;;;;;;;;9.67;5.67;;;;;15.19;64.75;101784.94;5076039;28;45644;-66
2022/06/13 06:01:38;;;;;;;;;7.00;6.00;;;;;15.27;64.53;101787.19;5075131;27;46485;-63
2022/06/13 06:04:04;;;;;;;;;6.67;4.33;;;;;15.34;64.24;101789.41;5073779;27;45695;-64
2022/06/13 06:06:32;;;;;;;;;6.67;6.67;;;;;15.42;63.72;101785.44;5076202;27;45569;-70
2022/06/13 06:09:00;;;;;;;;;6.67;6.67;;;;;15.44;63.89;101794.25;5074663;27;45524;-61
2022/06/13 06:11:29;;;;;;;;;6.33;6.33;;;;;15.41;64.50;101800.66;5072609;28;46423;-64
2022/06/13 06:13:55;;;;;;;;;13.67;10.00;;;;;15.44;64.22;101794.25;5061869;27;45418;-60
2022/06/13 06:16:22;;;;;;;;;11.00;9.00;;;;;15.32;64.46;101795.81;5074394;27;45634;-64
2022/06/13 06:18:49;;;;;;;;;7.33;7.00;;;;;15.42;64.03;101791.66;5075890;27;45709;-64
2022/06/13 06:21:15;;;;;;;;;10.67;7.33;;;;;15.58;63.63;101799.69;5073975;28;46060;-65
2022/06/13 06:23:40;;;;;;;;;11.33;9.00;;;;;15.65;63.38;101798.44;5075142;28;45701;-66
2022/06/13 06:26:06;;;;;;;;;9.67;9.00;;;;;15.58;63.51;101788.97;5092232;27;45258;-66
2022/06/13 06:28:33;;;;;;;;;10.00;9.00;;;;;15.65;63.83;101811.84;5078013;27;45173;-62
2022/06/13 06:30:59;;;;;;;;;10.67;7.33;;;;;15.70;63.04;101807.06;5076094;28;46402;-64
2022/06/13 06:33:26;;;;;;;;;10.67;9.33;;;;;15.78;62.93;101810.16;5076816;27;47498;-66
2022/06/13 06:35:52;;;;;;;;;14.33;9.00;;;;;15.84;63.22;101804.44;5074869;28;45555;-73
2022/06/13 06:38:19;;;;;;;;;10.33;6.33;;;;;15.91;62.73;101811.16;5087211;27;45535;-64
2022/06/13 06:40:45;;;;;;;;;10.33;6.33;;;;;15.96;62.63;101810.03;5081708;27;45459;-62
2022/06/13 06:43:10;;;;;;;;;9.00;9.00;;;;;16.03;62.49;101804.22;5070874;28;45480;-68
2022/06/13 06:45:39;;;;;;;;;9.33;7.00;;;;;16.15;62.25;101814.22;5069674;28;45457;-66
2022/06/13 06:48:04;;;;;;;;;16.67;9.00;;;;;16.17;62.58;101816.81;5072075;28;45393;-71
2022/06/13 06:50:33;;;;;;;;;6.00;6.00;;;;;16.18;62.15;101823.91;5075199;27;45571;-65
2022/06/13 06:52:58;;;;;;;;;10.33;8.67;;;;;16.19;62.03;101825.63;5075938;27;45488;-65
2022/06/13 07:00:58;;;;;;;;;9.33;6.67;;;;;16.42;61.05;101821.56;5073645;28;45226;-63
2022/06/13 07:03:23;;;;;;;;;8.00;8.00;;;;;16.51;60.77;101823.66;5077097;27;45279;-64
2022/06/13 07:05:51;;;;;;;;;9.33;5.67;;;;;16.51;60.07;101829.03;5088607;27;45638;-64
2022/06/13 07:08:16;;;;;;;;;18.67;13.67;;;;;16.55;60.66;101827.03;5075886;27;45354;-62
2022/06/13 07:10:46;;;;;;;;;23.00;17.33;;;;;16.60;60.35;101822.25;5071951;27;47033;-62
2022/06/13 07:13:12;;;;;;;;;14.00;11.00;;;;;16.68;60.25;101828.91;5069116;27;45441;-64
2022/06/13 07:15:37;;;;;;;;;12.33;9.67;;;;;16.72;59.84;101829.56;5070207;27;45329;-68
2022/06/13 07:18:03;;;;;;;;;14.67;8.67;;;;;16.63;59.25;101803.25;5076101;27;45472;-63
2022/06/13 07:20:28;;;;;;;;;10.33;7.33;;;;;16.78;59.46;101826.50;5074200;27;45480;-65
2022/06/13 07:22:54;;;;;;;;;14.00;8.33;;;;;16.85;59.53;101830.53;5071353;27;45514;-66
2022/06/13 07:25:24;;;;;;;;;8.33;8.00;;;;;16.86;59.05;101815.28;5067980;28;45506;-66
2022/06/13 07:27:50;;;;;;;;;9.33;9.00;;;;;16.94;58.90;101831.78;5074145;27;45380;-66
2022/06/13 07:30:17;;;;;;;;;10.33;6.67;;;;;17.00;59.10;101832.25;5069464;27;47163;-62
2022/06/13 07:32:43;;;;;;;;;13.33;9.67;;;;;17.05;57.84;101832.81;5073833;27;45610;-65
2022/06/13 07:35:11;;;;;;;;;6.00;6.00;;;;;17.05;58.06;101840.88;5078984;27;45310;-64
2022/06/13 07:40:21;;;;;;;;;7.00;5.67;;;;;17.15;57.24;101821.50;5073837;28;45487;-66
2022/06/13 07:42:55;;;;;;;;;7.00;7.00;;;;;17.24;57.38;101826.28;5073878;27;45499;-61
2022/06/13 07:45:24;;;;;;;;;8.00;7.00;;;;;17.33;57.04;101833.75;5075663;28;45344;-60
2022/06/13 07:47:50;;;;;;;;;7.00;6.00;;;;;17.35;56.11;101834.53;5074895;27;45448;-58
2022/06/13 07:50:20;;;;;;;;;5.00;5.00;;;;;17.32;56.56;101818.59;5090142;27;45431;-57
2022/06/13 07:52:47;;;;;;;;;7.67;6.67;;;;;17.41;56.46;101823.34;5061555;27;45446;-58
2022/06/13 07:55:12;;;;;;;;;8.00;6.33;;;;;17.47;56.16;101822.97;5074536;27;45540;-59
2022/06/13 07:57:38;;;;;;;;;6.33;5.33;;;;;17.53;56.16;101822.56;5094354;27;45596;-59
2022/06/13 08:00:05;;;;;;;;;5.33;5.33;;;;;17.60;55.09;101828.41;5070615;27;45329;-59
2022/06/13 08:02:34;;;;;;;;;6.67;5.67;;;;;17.67;54.52;101837.78;5074040;27;45376;-60
2022/06/13 08:05:00;;;;;;;;;4.00;4.00;;;;;17.78;53.47;101840.66;5072230;27;45351;-64
2022/06/13 08:07:26;;;;;;;;;6.33;3.00;;;;;17.85;53.01;101833.06;5069671;27;45547;-65
2022/06/13 08:09:52;;;;;;;;;7.67;6.33;;;;;17.85;52.30;101827.69;5071179;28;45975;-66
2022/06/13 08:12:20;;;;;;;;;4.00;4.00;;;;;17.95;53.21;101834.13;5077669;27;45401;-65
2022/06/13 08:14:47;;;;;;;;;4.00;4.00;;;;;18.06;52.20;101836.97;5074130;28;45538;-65
2022/06/13 08:17:15;;;;;;;;;4.00;2.67;;;;;18.13;52.61;101830.22;5070355;27;45497;-66
2022/06/13 08:19:40;;;;;;;;;4.33;4.33;;;;;18.23;51.96;101834.03;5072997;27;46246;-65
2022/06/13 08:22:06;;;;;;;;;5.33;5.00;;;;;18.29;51.38;101835.41;5075296;27;45567;-64
2022/06/13 08:24:33;;;;;;;;;4.33;4.33;;;;;18.40;51.50;101832.84;5066762;27;45328;-64
2022/06/13 08:26:58;;;;;;;;;5.33;3.67;;;;;18.67;49.87;101832.78;5074281;27;45468;-66
2022/06/13 08:29:24;;;;;;;;;3.67;3.67;;;;;19.12;48.74;101828.63;5064342;27;45700;-63
2022/06/13 08:31:49;;;;;;;;;6.67;4.33;;;;;19.73;47.87;101828.69;5073055;28;45498;-64
2022/06/13 08:34:15;;;;;;;;;5.33;5.33;;;;;20.20;45.96;101811.56;5074493;27;45342;-65
2022/06/13 08:36:40;;;;;;;;;2.67;2.00;;;;;20.79;44.08;101834.91;5073440;27;45545;-64
2022/06/13 08:39:05;;;;;;;;;3.67;3.67;;;;;21.20;42.26;101834.28;5070539;27;45420;-64
2022/06/13 08:41:50;;;;;;;;;2.67;2.67;;;;;21.50;39.13;101825.56;5075193;27;45251;-63
2022/06/13 08:44:30;;;;;;;;;4.50;4.50;;;;;21.98;38.06;101830.56;5076089;27;45283;-64
2022/06/13 08:47:15;;;;;;;;;3.75;3.75;;;;;22.19;36.09;101819.78;5076814;27;45563;-66
2022/06/13 08:49:57;;;;;;;;;2.00;2.00;;;;;22.47;35.50;101816.41;5067127;27;46254;-66
2022/06/13 08:52:31;;;;;;;;;4.25;4.00;;;;;22.73;35.43;101826.81;5068881;27;45223;-64
2022/06/13 08:55:07;;;;;;;;;2.75;2.50;;;;;23.00;34.82;101828.97;5072720;27;45423;-66
2022/06/13 08:57:35;;;;;;;;;3.75;3.50;;;;;23.16;33.83;101822.03;5074653;27;45450;-64
2022/06/13 09:00:23;;;;;;;;;3.50;3.00;;;;;23.65;36.65;101820.31;5073275;28;45312;-61
2022/06/13 09:02:53;;;;;;;;;5.00;3.50;;;;;24.23;35.64;101816.78;5055375;28;45432;-68
2022/06/13 09:05:50;;;;;;;;;2.20;2.20;;;;;24.69;34.18;101808.66;5073904;28;45248;-66
2022/06/13 09:08:27;;;;;;;;;3.00;3.00;;;;;24.89;32.42;101814.03;5075694;27;45526;-63
2022/06/13 09:11:17;;;;;;;;;4.00;3.00;;;;;25.19;33.51;101821.94;5072844;28;46294;-64
2022/06/13 09:14:13;;;;;;;;;4.00;2.80;;;;;25.47;33.33;101811.88;5075915;27;45223;-67
2022/06/13 09:16:44;;;;;;;;;4.40;4.40;;;;;25.87;33.18;101806.03;5061544;27;45280;-67
2022/06/13 09:19:28;;;;;;;;;5.25;4.00;;;;;26.43;32.59;101814.84;5070315;28;45557;-65
2022/06/13 09:21:54;;;;;;;;;2.60;2.60;;;;;26.83;31.80;101810.69;5073240;28;46193;-66
2022/06/13 09:24:35;;;;;;;;;2.50;2.50;;;;;27.07;29.29;101812.69;5108119;27;45341;-63
2022/06/13 09:27:17;;;;;;;;;3.40;3.00;;;;;27.25;31.08;101822.53;5074161;27;45416;-64
2022/06/13 09:29:50;;;;;;;;;2.60;2.60;;;;;27.65;31.23;101820.94;5077390;27;45362;-65
2022/06/13 09:32:20;;;;;;;;;3.80;3.80;;;;;27.98;29.82;101805.44;5110442;27;45392;-66
2022/06/13 09:34:48;;;;;;;;;4.20;3.60;;;;;28.44;28.15;101811.25;5073743;27;45692;-61
2022/06/13 09:37:36;;;;;;;;;2.00;2.00;;;;;28.48;27.95;101812.63;5070161;28;45344;-62
2022/06/13 09:40:02;;;;;;;;;5.00;1.80;;;;;28.59;27.40;101817.72;5076651;28;45349;-61
2022/06/13 09:42:40;;;;;;;;;2.40;2.00;;;;;28.91;28.78;101810.47;5080929;27;48176;-63
2022/06/13 09:45:09;;;;;;;;;3.00;3.00;;;;;29.34;28.16;101807.22;5077938;28;45442;-64
2022/06/13 09:47:43;;;;;;;;;7.60;2.60;;;;;29.42;26.72;101814.53;5078429;27;45402;-64
2022/06/13 09:50:22;;;;;;;;;3.20;1.80;;;;;29.63;25.11;101811.19;5076249;27;45428;-61
2022/06/13 09:52:50;;;;;;;;;2.40;2.40;;;;;29.53;24.80;101814.16;5078489;27;45394;-62
2022/06/13 09:55:58;;;;;;;;;2.80;2.80;;;;;29.61;25.31;101810.50;5074958;27;45971;-65
2022/06/13 09:58:55;;;;;;;;;10.60;9.40;;;;;29.31;25.84;101817.69;5077409;27;45324;-62
2022/06/13 10:01:26;;;;;;;;;4.40;2.00;;;;;29.11;26.10;101811.78;5076808;28;45440;-59
2022/06/13 10:03:57;;;;;;;;;3.80;3.20;;;;;29.34;27.86;101815.44;5076841;28;46219;-61
2022/06/13 10:06:26;;;;;;;;;3.80;2.20;;;;;29.25;25.24;101811.03;5077368;27;45229;-58
2022/06/13 10:09:11;;;;;;;;;3.60;3.00;;;;;29.11;25.51;101802.72;5076006;27;45467;-66
2022/06/13 10:11:50;;;;;;;;;2.40;2.40;;;;;28.65;27.29;101800.63;5057954;28;45524;-62
2022/06/13 10:14:52;;;;;;;;;3.60;3.00;;;;;28.45;27.05;101802.88;5072746;27;45349;-62
2022/06/13 10:17:26;;;;;;;;;1.60;1.60;;;;;28.59;27.08;101806.78;5065013;27;45592;-64
2022/06/13 10:20:08;;;;;;;;;1.20;1.20;;;;;28.97;27.91;101801.56;5076129;27;45539;-65
2022/06/13 10:22:53;;;;;;;;;7.80;5.60;;;;;28.97;27.30;101805.16;5071846;27;48192;-66
2022/06/13 10:25:54;;;;;;;;;3.00;3.00;;;;;28.88;26.82;101802.63;5076118;28;45512;-67
2022/06/13 10:29:00;;;;;;;;;2.80;2.80;;;;;28.52;28.44;101791.22;5030801;28;45581;-65
2022/06/13 10:31:44;;;;;;;;;4.20;4.20;;;;;27.98;27.25;101805.44;5057284;28;45482;-65
2022/06/13 10:34:24;;;;;;;;;3.60;3.60;;;;;27.27;28.31;101814.16;5077186;27;45444;-67
2022/06/13 10:37:37;;;;;;;;;3.80;3.80;;;;;26.96;29.39;101801.03;5076899;27;45918;-67
2022/06/13 10:40:08;;;;;;;;;5.00;2.80;;;;;26.79;29.83;101796.50;5051907;28;45445;-67
2022/06/13 10:42:36;;;;;;;;;2.80;2.80;;;;;26.44;29.92;101806.53;5071050;28;45487;-65
2022/06/13 10:45:07;;;;;;;;;0.00;0.00;;;;;26.18;30.54;101805.63;5075302;28;45498;-65
2022/06/13 10:47:59;;;;;;;;;7.20;3.00;;;;;25.91;31.24;101792.09;5077389;28;45698;-65
2022/06/13 10:50:40;;;;;;;;;3.40;3.40;;;;;25.47;31.58;101800.13;5075052;27;45295;-64
2022/06/13 10:53:12;;;;;;;;;2.40;2.20;;;;;25.23;31.68;101798.84;5076641;27;45250;-66
2022/06/13 10:55:41;;;;;;;;;6.75;4.50;;;;;24.91;31.45;101809.31;5076057;28;45654;-66
2022/06/13 10:58:24;;;;;;;;;7.40;5.40;;;;;24.73;31.32;101805.63;5074376;28;46315;-65
2022/06/13 11:01:14;;;;;;;;;4.20;3.60;;;;;24.52;31.53;101806.72;5075966;27;45479;-65
2022/06/13 11:03:43;;;;;;;;;3.40;2.40;;;;;24.51;31.84;101806.88;5076120;27;45485;-65
2022/06/13 11:06:25;;;;;;;;;4.00;2.75;;;;;24.39;32.03;101798.88;5076503;27;45473;-65
2022/06/13 11:09:02;;;;;;;;;3.50;3.50;;;;;24.27;32.27;101805.44;5076544;27;46290;-66
2022/06/13 11:11:38;;;;;;;;;3.40;3.00;;;;;24.22;32.70;101799.59;5074736;27;45420;-65
2022/06/13 11:14:16;;;;;;;;;2.00;2.00;;;;;24.04;32.35;101788.59;5074214;28;45331;-65
2022/06/13 11:22:37;;;;;;;;;5.50;3.00;;;;;23.96;32.49;101780.31;5076507;28;45353;-66
2022/06/13 11:25:21;;;;;;;;;5.25;3.00;;;;;23.79;32.53;101791.88;5076090;28;45306;-66
2022/06/13 11:28:14;;;;;;;;;4.00;2.25;;;;;23.74;33.27;101792.31;5072318;27;46348;-65
2022/06/13 11:30:49;;;;;;;;;6.25;2.75;;;;;23.63;33.05;101788.88;5071366;28;46939;-65
2022/06/13 11:33:43;;;;;;;;;4.00;4.00;;;;;23.46;33.27;101793.13;5075552;28;45469;-64
2022/06/13 11:36:11;;;;;;;;;2.00;1.75;;;;;23.60;33.60;101787.31;5071824;27;45426;-64
2022/06/13 11:38:53;;;;;;;;;2.75;2.00;;;;;23.75;33.51;101787.75;5077147;27;45514;-65
2022/06/13 11:41:43;;;;;;;;;2.00;2.00;;;;;23.81;33.41;101781.72;5076864;27;46262;-65
2022/06/13 11:44:17;;;;;;;;;2.00;2.00;;;;;23.93;33.21;101785.16;5087187;27;45353;-64
2022/06/13 11:46:52;;;;;;;;;5.00;4.00;;;;;24.01;32.92;101772.59;5072118;27;45741;-64
2022/06/13 11:49:18;;;;;;;;;5.25;3.00;;;;;24.08;33.03;101779.13;5076246;27;45540;-65
2022/06/13 11:51:58;;;;;;;;;5.00;3.00;;;;;24.19;32.23;101780.84;5074702;27;45787;-64
2022/06/13 11:54:29;;;;;;;;;5.40;2.00;;;;;24.24;32.61;101788.59;5076924;27;45292;-64
2022/06/13 11:57:29;;;;;;;;;3.00;2.60;;;;;24.03;32.67;101780.59;5076685;27;45482;-65
2022/06/13 12:00:08;;;;;;;;;5.00;3.25;;;;;24.19;33.56;101769.97;5074274;27;45409;-65
2022/06/13 12:02:39;;;;;;;;;3.25;2.00;;;;;24.32;32.33;101769.69;5074333;27;45503;-66
2022/06/13 12:05:33;;;;;;;;;4.80;2.00;;;;;24.38;31.98;101761.81;5076561;27;45252;-65
2022/06/13 12:08:16;;;;;;;;;1.00;1.00;;;;;24.25;32.18;101757.66;5075726;28;45226;-65
2022/06/13 12:10:55;;;;;;;;;6.50;4.00;;;;;24.27;32.42;101756.50;5076464;27;45412;-65
2022/06/13 12:13:22;;;;;;;;;3.75;3.75;;;;;24.35;31.53;101753.97;5092044;27;46945;-65
2022/06/13 12:15:53;;;;;;;;;4.50;4.50;;;;;24.49;32.03;101763.50;5076083;28;45400;-64